createdAt,value
2023-04-01T00:00:23.519Z,68.99
2023-04-01T00:02:49.626Z,68.69
2023-04-01T00:05:16.942Z,68.61
2023-04-01T00:07:43.323Z,68.75
2023-04-01T00:10:12.039Z,68.56
2023-04-01T00:12:38.910Z,68.57
2023-04-01T00:15:08.057Z,68.44
2023-04-01T00:17:34.767Z,68.44
2023-04-01T00:20:00.889Z,68.63
2023-04-01T00:22:27.438Z,68.49
2023-04-01T00:24:53.807Z,68.39
2023-04-01T00:27:20.207Z,68.35
2023-04-01T00:29:47.940Z,68.17
2023-04-01T00:32:15.473Z,67.92
2023-04-01T00:34:41.846Z,67.73
2023-04-01T00:37:08.483Z,67.77
2023-04-01T00:39:35.493Z,67.70
2023-04-01T00:42:03.715Z,67.49
2023-04-01T00:44:33.114Z,67.28
2023-04-01T00:47:00.040Z,67.40
2023-04-01T00:49:31.445Z,67.84
2023-04-01T00:52:01.774Z,68.38
2023-04-01T00:54:30.118Z,68.46
2023-04-01T00:57:26.213Z,68.33
2023-04-01T00:59:54.504Z,68.33
2023-04-01T01:02:21.378Z,68.25
2023-04-01T01:04:47.317Z,68.19
2023-04-01T01:07:25.505Z,68.24
2023-04-01T01:10:29.669Z,68.16
2023-04-01T01:13:04.873Z,68.09
2023-04-01T01:15:48.373Z,68.30
2023-04-01T01:18:34.743Z,68.21
2023-04-01T01:21:21.156Z,68.27
2023-04-01T01:24:22.760Z,68.12
2023-04-01T01:27:15.150Z,68.05
2023-04-01T01:30:09.822Z,67.91
2023-04-01T01:32:52.249Z,67.67
2023-04-01T01:35:28.427Z,67.64
2023-04-01T01:38:00.229Z,67.50
2023-04-01T01:40:29.396Z,67.46
2023-04-01T01:43:03.066Z,67.24
2023-04-01T01:45:31.896Z,67.21
2023-04-01T01:47:59.753Z,67.40
2023-04-01T01:50:27.223Z,67.41
2023-04-01T01:53:02.623Z,67.28
2023-04-01T01:55:37.847Z,67.27
2023-04-01T01:58:25.508Z,67.10
2023-04-01T02:00:56.894Z,67.12
2023-04-01T02:03:26.515Z,66.83
2023-04-01T02:05:55.776Z,66.82
2023-04-01T02:08:36.334Z,66.83
2023-04-01T02:11:08.194Z,66.78
2023-04-01T02:14:01.764Z,66.83
2023-04-01T02:16:33.002Z,66.81
2023-04-01T02:19:00.710Z,66.74
2023-04-01T02:21:31.650Z,66.74
2023-04-01T02:24:00.629Z,66.80
2023-04-01T02:26:27.228Z,66.92
2023-04-01T02:28:55.222Z,66.94
2023-04-01T02:31:23.461Z,66.87
2023-04-01T02:33:50.194Z,66.72
2023-04-01T02:36:16.718Z,66.64
2023-04-01T02:38:45.269Z,66.52
2023-04-01T02:41:13.052Z,66.59
2023-04-01T02:43:39.894Z,66.74
2023-04-01T02:46:07.481Z,66.80
2023-04-01T02:48:33.814Z,66.73
2023-04-01T02:50:59.790Z,66.64
2023-04-01T02:53:25.719Z,66.72
2023-04-01T02:55:52.670Z,66.85
2023-04-01T02:58:18.849Z,66.90
2023-04-01T03:00:45.501Z,66.96
2023-04-01T03:03:13.132Z,67.24
2023-04-01T03:05:39.371Z,67.20
2023-04-01T03:08:05.731Z,67.12
2023-04-01T03:10:31.656Z,67.05
2023-04-01T03:12:57.655Z,67.00
2023-04-01T03:15:23.952Z,66.96
2023-04-01T03:17:50.058Z,66.84
2023-04-01T03:20:16.381Z,66.74
2023-04-01T03:22:43.003Z,66.77
2023-04-01T03:25:10.354Z,66.80
2023-04-01T03:27:36.423Z,66.96
2023-04-01T03:30:06.319Z,66.87
2023-04-01T03:32:34.646Z,66.99
2023-04-01T03:35:00.677Z,67.02
2023-04-01T03:37:27.874Z,67.27
2023-04-01T03:39:53.960Z,67.20
2023-04-01T03:42:20.183Z,67.06
2023-04-01T03:44:46.069Z,67.04
2023-04-01T03:47:14.143Z,66.82
2023-04-01T03:49:40.186Z,66.89
2023-04-01T03:52:09.057Z,66.81
2023-04-01T03:54:35.212Z,66.68
2023-04-01T03:57:01.187Z,66.67
2023-04-01T03:59:27.426Z,66.95
2023-04-01T04:01:53.712Z,66.90
2023-04-01T04:04:19.918Z,66.89
2023-04-01T04:06:46.469Z,66.85
2023-04-01T04:09:12.576Z,66.99
2023-04-01T04:11:38.457Z,67.23
2023-04-01T04:14:04.570Z,67.45
2023-04-01T04:16:30.650Z,67.36
2023-04-01T04:18:59.130Z,67.34
2023-04-01T04:21:25.115Z,67.57
2023-04-01T04:23:51.868Z,67.73
2023-04-01T04:26:18.353Z,68.00
2023-04-01T04:28:49.676Z,67.75
2023-04-01T04:31:21.559Z,67.69
2023-04-01T04:33:48.483Z,68.01
2023-04-01T04:36:15.503Z,68.08
2023-04-01T04:38:41.763Z,67.84
2023-04-01T04:41:13.119Z,67.89
2023-04-01T04:43:40.989Z,68.00
2023-04-01T04:46:08.470Z,68.09
2023-04-01T04:48:34.875Z,68.12
2023-04-01T04:51:01.644Z,68.28
2023-04-01T04:53:28.037Z,68.20
2023-04-01T04:55:54.226Z,68.10
2023-04-01T04:58:36.414Z,68.07
2023-04-01T05:01:11.306Z,67.95
2023-04-01T05:03:38.932Z,68.11
2023-04-01T05:06:06.718Z,67.90
2023-04-01T05:08:33.336Z,67.72
2023-04-01T05:11:00.387Z,67.87
2023-04-01T05:13:26.945Z,68.02
2023-04-01T05:15:52.904Z,67.92
2023-04-01T05:18:18.932Z,67.78
2023-04-01T05:20:53.759Z,67.64
2023-04-01T05:23:23.644Z,67.68
2023-04-01T05:25:51.337Z,67.41
2023-04-01T05:28:17.688Z,67.20
2023-04-01T05:30:45.647Z,67.47
2023-04-01T05:33:25.801Z,67.33
2023-04-01T05:35:51.700Z,67.19
2023-04-01T05:38:17.615Z,67.34
2023-04-01T05:40:43.767Z,67.05
2023-04-01T05:43:10.083Z,67.17
2023-04-01T05:45:36.201Z,67.20
2023-04-01T05:48:14.098Z,67.38
2023-04-01T05:50:42.390Z,67.42
2023-04-01T05:53:09.162Z,67.40
2023-04-01T05:55:36.543Z,67.16
2023-04-01T05:58:02.834Z,66.78
2023-04-01T06:00:29.255Z,66.58
2023-04-01T06:02:59.083Z,66.29
2023-04-01T06:05:29.017Z,66.12
2023-04-01T06:08:01.181Z,65.82
2023-04-01T06:10:49.179Z,65.64
2023-04-01T06:14:00.994Z,65.28
2023-04-01T06:16:53.900Z,65.19
2023-04-01T06:19:36.106Z,65.24
2023-04-01T06:22:10.112Z,65.09
2023-04-01T06:24:51.711Z,64.34
2023-04-01T06:27:20.671Z,64.03
2023-04-01T06:30:06.360Z,63.50
2023-04-01T06:33:15.350Z,62.91
2023-04-01T06:36:05.736Z,62.69
2023-04-01T06:39:16.909Z,63.04
2023-04-01T06:42:06.244Z,62.74
2023-04-01T06:45:04.829Z,62.33
2023-04-01T06:48:11.334Z,61.95
2023-04-01T06:51:22.825Z,61.41
2023-04-01T06:54:30.441Z,60.64
2023-04-01T06:57:17.191Z,60.40
2023-04-01T06:59:43.783Z,60.46
2023-04-01T07:02:09.951Z,60.40
2023-04-01T07:04:41.374Z,59.68
2023-04-01T07:07:34.715Z,58.18
2023-04-01T07:10:28.511Z,58.75
2023-04-01T07:13:21.888Z,58.98
2023-04-01T07:16:01.075Z,58.15
2023-04-01T07:18:37.978Z,58.89
2023-04-01T07:21:09.586Z,59.06
2023-04-01T07:23:45.999Z,58.97
2023-04-01T07:26:41.531Z,58.88
2023-04-01T07:29:14.738Z,58.50
2023-04-01T07:32:04.118Z,58.42
2023-04-01T07:35:00.927Z,58.85
2023-04-01T07:37:53.404Z,60.66
2023-04-01T07:40:36.393Z,62.20
2023-04-01T07:43:40.769Z,62.70
2023-04-01T07:46:58.772Z,63.24
2023-04-01T07:49:50.970Z,62.92
2023-04-01T07:52:25.860Z,62.43
2023-04-01T07:55:05.754Z,62.21
2023-04-01T07:57:56.280Z,62.16
2023-04-01T08:00:36.047Z,61.85
2023-04-01T08:03:34.738Z,60.91
2023-04-01T08:06:14.841Z,60.14
2023-04-01T08:09:06.128Z,60.29
2023-04-01T08:12:24.935Z,60.10
2023-04-01T08:15:22.149Z,59.54
2023-04-01T08:18:37.552Z,59.21
2023-04-01T08:21:10.965Z,59.36
2023-04-01T08:23:45.234Z,59.37
2023-04-01T08:26:25.159Z,59.49
2023-04-01T08:28:58.124Z,59.48
2023-04-01T08:31:37.930Z,58.00
2023-04-01T08:34:12.515Z,58.05
2023-04-01T08:36:44.712Z,58.16
2023-04-01T08:39:18.821Z,57.14
2023-04-01T08:42:17.856Z,57.16
2023-04-01T08:45:15.005Z,56.65
2023-04-01T08:48:08.851Z,56.57
2023-04-01T08:50:48.528Z,55.74
2023-04-01T08:53:53.208Z,55.92
2023-04-01T08:56:32.098Z,56.33
2023-04-01T08:59:16.119Z,55.59
2023-04-01T09:01:43.004Z,55.82
2023-04-01T09:04:27.376Z,55.58
2023-04-01T09:07:02.872Z,55.67
2023-04-01T09:09:51.082Z,55.84
2023-04-01T09:12:32.716Z,54.79
2023-04-01T09:15:20.906Z,54.86
2023-04-01T09:18:06.141Z,54.91
2023-04-01T09:20:54.344Z,53.68
2023-04-01T09:23:38.909Z,53.58
2023-04-01T09:26:20.583Z,53.34
2023-04-01T09:29:08.716Z,52.27
2023-04-01T09:31:53.779Z,52.92
2023-04-01T09:34:54.768Z,51.66
2023-04-01T09:37:40.317Z,51.37
2023-04-01T09:40:18.771Z,50.88
2023-04-01T09:43:17.025Z,51.40
2023-04-01T09:45:58.840Z,49.92
2023-04-01T09:49:00.496Z,49.77
2023-04-01T09:51:55.523Z,48.69
2023-04-01T09:54:30.993Z,48.94
2023-04-01T09:57:48.502Z,48.34
2023-04-01T10:01:04.854Z,48.18
2023-04-01T10:04:02.466Z,47.13
2023-04-01T10:07:02.896Z,46.04
2023-04-01T10:09:50.937Z,46.94
2023-04-01T10:12:32.567Z,46.74
2023-04-01T10:15:17.023Z,45.03
2023-04-01T10:18:08.149Z,44.07
2023-04-01T10:20:40.277Z,45.06
2023-04-01T10:23:18.909Z,44.64
2023-04-01T10:26:08.062Z,44.40
2023-04-01T10:28:57.607Z,43.03
2023-04-01T10:31:56.113Z,42.67
2023-04-01T10:34:34.679Z,42.58
2023-04-01T10:37:16.257Z,42.50
2023-04-01T10:40:04.368Z,42.72
2023-04-01T10:43:23.910Z,42.06
2023-04-01T10:46:34.904Z,41.68
2023-04-01T10:49:29.898Z,41.21
2023-04-01T10:52:23.303Z,41.08
2023-04-01T10:55:45.845Z,40.70
2023-04-01T10:58:41.946Z,40.25
2023-04-01T11:01:36.036Z,40.16
2023-04-01T11:04:52.436Z,39.73
2023-04-01T11:08:09.106Z,40.35
2023-04-01T11:10:46.234Z,39.70
2023-04-01T11:13:41.715Z,40.15
2023-04-01T11:16:39.967Z,40.07
2023-04-01T11:19:28.406Z,39.16
2023-04-01T11:22:16.730Z,38.85
2023-04-01T11:25:03.364Z,38.27
2023-04-01T11:28:25.765Z,39.06
2023-04-01T11:31:15.784Z,38.80
2023-04-01T11:33:47.933Z,37.43
2023-04-01T11:36:49.501Z,36.80
2023-04-01T11:39:34.994Z,37.30
2023-04-01T11:42:18.998Z,37.89
2023-04-01T11:45:47.166Z,37.07
2023-04-01T11:48:35.570Z,37.32
2023-04-01T11:51:30.261Z,36.39
2023-04-01T11:54:15.524Z,35.70
2023-04-01T11:56:44.302Z,36.16
2023-04-01T11:59:21.537Z,36.22
2023-04-01T12:02:10.731Z,35.96
2023-04-01T12:05:18.269Z,35.06
2023-04-01T12:08:03.521Z,34.94
2023-04-01T12:10:57.776Z,34.37
2023-04-01T12:13:29.525Z,35.11
2023-04-01T12:16:34.039Z,34.60
2023-04-01T12:19:19.283Z,34.82
2023-04-01T12:22:00.458Z,34.38
2023-04-01T12:24:48.040Z,34.74
2023-04-01T12:27:39.094Z,34.86
2023-04-01T12:30:23.823Z,34.78
2023-04-01T12:33:20.283Z,33.72
2023-04-01T12:36:25.785Z,34.00
2023-04-01T12:38:57.790Z,33.52
2023-04-01T12:41:45.554Z,33.67
2023-04-01T12:44:18.167Z,33.07
2023-04-01T12:46:56.209Z,32.73
2023-04-01T12:50:03.974Z,32.46
2023-04-01T12:52:52.401Z,31.72
2023-04-01T12:55:27.398Z,31.36
2023-04-01T12:58:12.310Z,31.50
2023-04-01T13:01:03.048Z,31.51
2023-04-01T13:03:32.067Z,31.01
2023-04-01T13:06:15.279Z,31.24
2023-04-01T13:08:49.880Z,29.95
2023-04-01T13:11:37.081Z,29.19
2023-04-01T13:14:37.674Z,27.21
2023-04-01T13:17:21.477Z,25.26
2023-04-01T13:20:04.750Z,24.81
2023-04-01T13:22:50.533Z,25.41
2023-04-01T13:25:47.772Z,25.54
2023-04-01T13:28:24.274Z,24.37
2023-04-01T13:31:03.555Z,24.83
2023-04-01T13:33:48.270Z,25.10
2023-04-01T13:36:37.129Z,25.14
2023-04-01T13:39:25.083Z,24.67
2023-04-01T13:42:13.148Z,25.54
2023-04-01T13:45:12.550Z,25.74
2023-04-01T13:47:44.862Z,25.42
2023-04-01T13:50:48.370Z,25.88
2023-04-01T13:53:40.088Z,26.00
2023-04-01T13:56:36.839Z,25.82
2023-04-01T13:59:21.778Z,25.86
2023-04-01T14:01:55.229Z,25.90
2023-04-01T14:04:45.469Z,25.83
2023-04-01T14:07:46.519Z,25.34
2023-04-01T14:10:39.747Z,25.64
2023-04-01T14:13:27.690Z,26.17
2023-04-01T14:16:12.596Z,26.95
2023-04-01T14:19:01.024Z,27.04
2023-04-01T14:21:36.578Z,26.97
2023-04-01T14:24:19.149Z,27.07
2023-04-01T14:27:19.992Z,27.63
2023-04-01T14:30:16.387Z,28.11
2023-04-01T14:32:56.732Z,28.34
2023-04-01T14:35:33.768Z,28.15
2023-04-01T14:38:35.698Z,28.46
2023-04-01T14:41:21.182Z,29.12
2023-04-01T14:44:17.205Z,29.71
2023-04-01T14:47:02.191Z,29.95
2023-04-01T14:49:33.931Z,29.86
2023-04-01T14:52:26.239Z,30.13
2023-04-01T14:54:52.856Z,30.34
2023-04-01T14:57:30.420Z,30.42
2023-04-01T15:00:18.544Z,30.79
2023-04-01T15:02:53.441Z,31.31
2023-04-01T15:05:33.011Z,31.67
2023-04-01T15:08:20.675Z,31.91
2023-04-01T15:10:58.874Z,31.90
2023-04-01T15:13:35.485Z,31.56
2023-04-01T15:16:10.875Z,31.35
2023-04-01T15:18:42.642Z,31.16
2023-04-01T15:21:27.542Z,31.08
2023-04-01T15:24:11.807Z,30.98
2023-04-01T15:26:59.729Z,30.94
2023-04-01T15:29:43.836Z,30.71
2023-04-01T15:32:48.996Z,30.66
2023-04-01T15:35:44.456Z,30.70
2023-04-01T15:38:31.706Z,30.82
2023-04-01T15:41:13.086Z,30.81
2023-04-01T15:43:45.761Z,30.91
2023-04-01T15:46:21.042Z,30.75
2023-04-01T15:48:52.875Z,30.84
2023-04-01T15:51:44.057Z,30.72
2023-04-01T15:54:13.344Z,30.45
2023-04-01T15:56:50.359Z,30.30
2023-04-01T15:59:28.585Z,30.20
2023-04-01T16:02:19.903Z,29.99
2023-04-01T16:04:58.793Z,29.65
2023-04-01T16:07:30.882Z,29.93
2023-04-01T16:10:04.961Z,30.14
2023-04-01T16:13:00.099Z,30.25
2023-04-01T16:15:58.866Z,30.29
2023-04-01T16:18:47.108Z,30.42
2023-04-01T16:21:28.107Z,30.49
2023-04-01T16:23:59.985Z,30.70
2023-04-01T16:26:43.715Z,30.95
2023-04-01T16:29:13.105Z,30.79
2023-04-01T16:31:45.957Z,31.05
2023-04-01T16:34:27.794Z,31.14
2023-04-01T16:37:20.633Z,31.09
2023-04-01T16:40:01.495Z,31.21
2023-04-01T16:42:58.371Z,31.31
2023-04-01T16:45:37.371Z,31.48
2023-04-01T16:48:13.098Z,32.07
2023-04-01T16:51:00.420Z,32.20
2023-04-01T16:53:50.244Z,32.39
2023-04-01T16:56:25.346Z,32.24
2023-04-01T16:59:13.882Z,32.32
2023-04-01T17:01:55.529Z,32.58
2023-04-01T17:04:53.363Z,32.68
2023-04-01T17:07:37.102Z,32.65
2023-04-01T17:10:02.968Z,33.47
2023-04-01T17:12:48.256Z,33.77
2023-04-01T17:15:38.942Z,33.92
2023-04-01T17:18:09.966Z,34.31
2023-04-01T17:20:46.979Z,34.60
2023-04-01T17:23:15.168Z,35.20
2023-04-01T17:26:19.136Z,35.10
2023-04-01T17:28:58.457Z,34.97
2023-04-01T17:31:30.194Z,35.04
2023-04-01T17:34:15.126Z,35.14
2023-04-01T17:37:08.634Z,35.32
2023-04-01T17:40:26.580Z,35.60
2023-04-01T17:43:07.865Z,35.62
2023-04-01T17:45:45.901Z,35.70
2023-04-01T17:48:55.354Z,36.11
2023-04-01T17:51:28.990Z,36.30
2023-04-01T17:54:25.581Z,36.31
2023-04-01T17:57:29.521Z,36.40
2023-04-01T18:00:14.479Z,36.73
2023-04-01T18:02:50.220Z,36.78
2023-04-01T18:05:37.347Z,36.87
2023-04-01T18:08:06.543Z,37.15
2023-04-01T18:10:46.692Z,37.24
2023-04-01T18:13:12.692Z,37.59
2023-04-01T18:15:51.426Z,37.82
2023-04-01T18:18:20.324Z,37.91
2023-04-01T18:21:00.332Z,38.14
2023-04-01T18:23:59.222Z,38.42
2023-04-01T18:26:37.562Z,38.37
2023-04-01T18:29:37.303Z,38.51
2023-04-01T18:32:16.190Z,39.03
2023-04-01T18:34:58.448Z,38.99
2023-04-01T18:37:31.942Z,39.13
2023-04-01T18:40:11.085Z,38.86
2023-04-01T18:42:54.495Z,38.81
2023-04-01T18:45:29.524Z,38.96
2023-04-01T18:48:09.583Z,39.15
2023-04-01T18:50:48.596Z,39.07
2023-04-01T18:53:44.039Z,39.06
2023-04-01T18:56:29.656Z,38.97
2023-04-01T18:59:34.848Z,39.08
2023-04-01T19:02:19.294Z,39.09
2023-04-01T19:04:56.573Z,39.19
2023-04-01T19:07:37.980Z,39.33
2023-04-01T19:10:50.011Z,39.36
2023-04-01T19:13:34.075Z,39.16
2023-04-01T19:16:00.670Z,39.03
2023-04-01T19:18:35.648Z,38.98
2023-04-01T19:21:49.794Z,38.90
2023-04-01T19:24:41.004Z,38.70
2023-04-01T19:27:24.950Z,38.62
2023-04-01T19:30:19.776Z,38.61
2023-04-01T19:33:18.820Z,38.70
2023-04-01T19:35:56.317Z,38.65
2023-04-01T19:38:35.439Z,38.73
2023-04-01T19:41:18.480Z,38.88
2023-04-01T19:43:50.491Z,39.06
2023-04-01T19:46:29.040Z,39.26
2023-04-01T19:49:23.287Z,39.50
2023-04-01T19:52:07.823Z,39.56
2023-04-01T19:55:01.810Z,39.34
2023-04-01T19:57:46.351Z,39.24
2023-04-01T20:00:28.368Z,39.32
2023-04-01T20:03:03.829Z,39.47
2023-04-01T20:05:47.876Z,40.18
2023-04-01T20:08:43.156Z,40.66
2023-04-01T20:11:27.402Z,41.00
2023-04-01T20:13:59.552Z,41.25
2023-04-01T20:16:52.505Z,41.37
2023-04-01T20:19:43.035Z,41.60
2023-04-01T20:22:35.596Z,41.53
2023-04-01T20:25:27.345Z,41.77
2023-04-01T20:28:02.692Z,42.01
2023-04-01T20:30:48.822Z,42.25
2023-04-01T20:33:34.252Z,42.54
2023-04-01T20:36:15.623Z,42.81
2023-04-01T20:39:14.379Z,42.99
2023-04-01T20:41:52.327Z,43.27
2023-04-01T20:44:33.708Z,43.99
2023-04-01T20:47:34.889Z,44.42
2023-04-01T20:50:33.226Z,44.93
2023-04-01T20:53:15.832Z,44.90
2023-04-01T20:55:48.152Z,45.19
2023-04-01T20:58:46.824Z,45.09
2023-04-01T21:01:32.261Z,45.35
2023-04-01T21:04:13.594Z,45.22
2023-04-01T21:07:00.538Z,45.55
2023-04-01T21:09:49.485Z,45.87
2023-04-01T21:12:31.237Z,47.24
2023-04-01T21:15:21.768Z,47.56
2023-04-01T21:18:02.825Z,48.42
2023-04-01T21:20:47.734Z,49.01
2023-04-01T21:23:32.648Z,49.23
2023-04-01T21:26:18.779Z,50.87
2023-04-01T21:28:57.111Z,51.28
2023-04-01T21:31:56.335Z,51.14
2023-04-01T21:34:28.385Z,51.53
2023-04-01T21:37:13.311Z,51.94
2023-04-01T21:39:59.724Z,52.54
2023-04-01T21:42:55.442Z,53.22
2023-04-01T21:45:48.739Z,53.81
2023-04-01T21:48:52.602Z,53.56
2023-04-01T21:51:43.413Z,53.16
2023-04-01T21:54:48.310Z,53.49
2023-04-01T21:57:14.237Z,53.72
2023-04-01T22:00:16.480Z,53.76
2023-04-01T22:02:57.873Z,54.05
2023-04-01T22:05:52.084Z,53.95
2023-04-01T22:08:41.272Z,54.32
2023-04-01T22:11:36.618Z,54.55
2023-04-01T22:14:07.795Z,54.07
2023-04-01T22:16:54.521Z,54.36
2023-04-01T22:19:30.563Z,54.46
2023-04-01T22:22:01.697Z,54.54
2023-04-01T22:24:49.444Z,55.02
2023-04-01T22:27:25.482Z,55.23
2023-04-01T22:30:10.716Z,55.38
2023-04-01T22:32:45.435Z,55.61
2023-04-01T22:35:31.765Z,55.23
2023-04-01T22:38:12.107Z,54.99
2023-04-01T22:41:05.159Z,55.14
2023-04-01T22:43:40.167Z,55.30
2023-04-01T22:46:11.512Z,54.84
2023-04-01T22:48:44.660Z,54.59
2023-04-01T22:51:23.328Z,54.41
2023-04-01T22:53:49.245Z,53.95
2023-04-01T22:56:36.257Z,53.68
2023-04-01T22:59:17.188Z,53.63
2023-04-01T23:02:01.305Z,53.37
2023-04-01T23:04:32.851Z,53.41
2023-04-01T23:07:04.314Z,53.24
2023-04-01T23:09:33.876Z,53.19
2023-04-01T23:12:05.633Z,53.18
2023-04-01T23:14:41.051Z,53.24
2023-04-01T23:17:12.858Z,53.15
2023-04-01T23:20:06.221Z,53.14
2023-04-01T23:23:17.263Z,53.25
2023-04-01T23:26:05.474Z,53.30
2023-04-01T23:28:53.434Z,52.92
2023-04-01T23:31:30.367Z,52.91
2023-04-01T23:34:00.156Z,52.86
2023-04-01T23:36:27.071Z,52.90
2023-04-01T23:38:54.593Z,52.85
2023-04-01T23:41:24.971Z,52.92
2023-04-01T23:44:09.253Z,52.88
2023-04-01T23:46:36.722Z,52.96
2023-04-01T23:49:04.149Z,52.84
2023-04-01T23:51:39.151Z,52.59
2023-04-01T23:54:19.261Z,52.49
2023-04-01T23:56:54.350Z,52.38
2023-04-01T23:59:38.920Z,52.36
